Terminal Aerodrome Forecast
Issued by NWS Binghamton, NY

Home | Current Version | Previous Version | Text Only | Print | Product List | Glossary On
Versions: 1 2 3 4 5 6 7 8 9 10 11 12 13 14 15 16
423
FTUS41 KBGM 081124
TAFSYR
TAF
KSYR 081124Z 0812/0912 10008KT P6SM BKN100
     FM090000 10005KT P6SM OVC050
     FM090600 10005KT 3SM -SHSN BR OVC025=

USA.gov is the U.S. government's official web portal to all federal, state and local government web resources and services.